sensor_id;sensor_type;location;lat;lon;timestamp;P1;durP1;ratioP1;P2;durP2;ratioP2
67164;SDS011;54093;50.014;19.984;2022-11-27T00:00:13;9.65;;;7.50;;
67164;SDS011;54093;50.014;19.984;2022-11-27T00:09:54;16.58;;;9.35;;
67164;SDS011;54093;50.014;19.984;2022-11-27T00:19:15;9.85;;;7.25;;
67164;SDS011;54093;50.014;19.984;2022-11-27T00:28:37;9.52;;;7.15;;
67164;SDS011;54093;50.014;19.984;2022-11-27T00:37:58;14.23;;;7.07;;
67164;SDS011;54093;50.014;19.984;2022-11-27T00:47:18;7.50;;;5.97;;
67164;SDS011;54093;50.014;19.984;2022-11-27T00:56:39;13.57;;;7.63;;
67164;SDS011;54093;50.014;19.984;2022-11-27T01:06:02;13.40;;;7.55;;
67164;SDS011;54093;50.014;19.984;2022-11-27T01:15:24;9.52;;;6.50;;
67164;SDS011;54093;50.014;19.984;2022-11-27T01:24:44;14.07;;;8.25;;
67164;SDS011;54093;50.014;19.984;2022-11-27T01:34:07;11.85;;;6.70;;
67164;SDS011;54093;50.014;19.984;2022-11-27T01:53:01;7.53;;;6.65;;
67164;SDS011;54093;50.014;19.984;2022-11-27T02:02:25;9.90;;;6.15;;
67164;SDS011;54093;50.014;19.984;2022-11-27T02:11:53;11.45;;;8.40;;
67164;SDS011;54093;50.014;19.984;2022-11-27T02:31:39;9.40;;;6.32;;
67164;SDS011;54093;50.014;19.984;2022-11-27T02:50:16;10.10;;;6.75;;
67164;SDS011;54093;50.014;19.984;2022-11-27T02:59:40;7.90;;;6.93;;
67164;SDS011;54093;50.014;19.984;2022-11-27T03:09:47;7.60;;;6.15;;
67164;SDS011;54093;50.014;19.984;2022-11-27T03:19:14;9.90;;;6.82;;
67164;SDS011;54093;50.014;19.984;2022-11-27T03:28:36;12.43;;;8.48;;
67164;SDS011;54093;50.014;19.984;2022-11-27T03:37:57;12.57;;;8.40;;
67164;SDS011;54093;50.014;19.984;2022-11-27T04:06:39;9.18;;;7.30;;
67164;SDS011;54093;50.014;19.984;2022-11-27T04:16:00;10.82;;;6.18;;
67164;SDS011;54093;50.014;19.984;2022-11-27T04:25:21;9.07;;;7.25;;
67164;SDS011;54093;50.014;19.984;2022-11-27T04:34:42;9.57;;;6.85;;
67164;SDS011;54093;50.014;19.984;2022-11-27T04:44:03;10.50;;;7.88;;
67164;SDS011;54093;50.014;19.984;2022-11-27T04:53:24;13.10;;;7.78;;
67164;SDS011;54093;50.014;19.984;2022-11-27T05:02:45;8.07;;;6.28;;
67164;SDS011;54093;50.014;19.984;2022-11-27T05:12:06;11.02;;;6.78;;
67164;SDS011;54093;50.014;19.984;2022-11-27T05:21:27;8.95;;;6.72;;
67164;SDS011;54093;50.014;19.984;2022-11-27T05:30:49;14.60;;;8.40;;
67164;SDS011;54093;50.014;19.984;2022-11-27T05:40:11;19.05;;;10.05;;
67164;SDS011;54093;50.014;19.984;2022-11-27T05:49:32;15.98;;;9.48;;
67164;SDS011;54093;50.014;19.984;2022-11-27T05:58:52;14.52;;;8.48;;
67164;SDS011;54093;50.014;19.984;2022-11-27T06:08:13;11.45;;;7.18;;
67164;SDS011;54093;50.014;19.984;2022-11-27T06:17:34;15.98;;;9.60;;
67164;SDS011;54093;50.014;19.984;2022-11-27T06:26:55;16.00;;;9.75;;
67164;SDS011;54093;50.014;19.984;2022-11-27T06:36:16;17.40;;;9.40;;
67164;SDS011;54093;50.014;19.984;2022-11-27T06:45:38;11.00;;;8.00;;
67164;SDS011;54093;50.014;19.984;2022-11-27T06:54:59;11.38;;;8.70;;
67164;SDS011;54093;50.014;19.984;2022-11-27T07:04:19;15.32;;;9.52;;
67164;SDS011;54093;50.014;19.984;2022-11-27T07:13:40;21.27;;;10.80;;
67164;SDS011;54093;50.014;19.984;2022-11-27T07:23:01;14.98;;;8.70;;
67164;SDS011;54093;50.014;19.984;2022-11-27T07:32:22;11.60;;;8.85;;
67164;SDS011;54093;50.014;19.984;2022-11-27T07:41:43;14.68;;;7.68;;
67164;SDS011;54093;50.014;19.984;2022-11-27T07:51:04;7.15;;;6.10;;
67164;SDS011;54093;50.014;19.984;2022-11-27T08:00:26;14.07;;;7.43;;
67164;SDS011;54093;50.014;19.984;2022-11-27T08:09:46;11.93;;;6.22;;
67164;SDS011;54093;50.014;19.984;2022-11-27T08:19:08;10.98;;;6.75;;
67164;SDS011;54093;50.014;19.984;2022-11-27T08:28:29;5.55;;;4.82;;
67164;SDS011;54093;50.014;19.984;2022-11-27T08:37:50;9.32;;;6.05;;
67164;SDS011;54093;50.014;19.984;2022-11-27T08:47:11;9.55;;;7.32;;
67164;SDS011;54093;50.014;19.984;2022-11-27T08:56:34;13.18;;;9.48;;
67164;SDS011;54093;50.014;19.984;2022-11-27T09:05:55;16.92;;;9.30;;
67164;SDS011;54093;50.014;19.984;2022-11-27T09:15:16;23.35;;;12.88;;
67164;SDS011;54093;50.014;19.984;2022-11-27T09:24:37;19.75;;;11.70;;
67164;SDS011;54093;50.014;19.984;2022-11-27T09:33:58;24.23;;;13.43;;
67164;SDS011;54093;50.014;19.984;2022-11-27T09:43:22;14.65;;;10.20;;
67164;SDS011;54093;50.014;19.984;2022-11-27T09:52:49;10.27;;;7.82;;
67164;SDS011;54093;50.014;19.984;2022-11-27T10:02:15;10.57;;;8.50;;
67164;SDS011;54093;50.014;19.984;2022-11-27T10:11:41;13.95;;;10.25;;
67164;SDS011;54093;50.014;19.984;2022-11-27T10:40:20;14.15;;;10.05;;
67164;SDS011;54093;50.014;19.984;2022-11-27T10:49:45;19.27;;;11.80;;
67164;SDS011;54093;50.014;19.984;2022-11-27T10:59:12;13.18;;;10.60;;
67164;SDS011;54093;50.014;19.984;2022-11-27T11:08:38;18.35;;;12.10;;
67164;SDS011;54093;50.014;19.984;2022-11-27T11:17:59;13.43;;;9.60;;
67164;SDS011;54093;50.014;19.984;2022-11-27T11:27:27;17.05;;;10.07;;
67164;SDS011;54093;50.014;19.984;2022-11-27T11:37:00;11.45;;;8.95;;
67164;SDS011;54093;50.014;19.984;2022-11-27T11:46:24;13.82;;;9.05;;
67164;SDS011;54093;50.014;19.984;2022-11-27T12:15:08;17.55;;;11.48;;
67164;SDS011;54093;50.014;19.984;2022-11-27T12:34:12;11.73;;;8.45;;
67164;SDS011;54093;50.014;19.984;2022-11-27T12:43:52;13.02;;;8.45;;
67164;SDS011;54093;50.014;19.984;2022-11-27T12:53:20;12.68;;;7.82;;
67164;SDS011;54093;50.014;19.984;2022-11-27T13:02:59;15.38;;;7.63;;
67164;SDS011;54093;50.014;19.984;2022-11-27T13:12:25;16.77;;;11.38;;
67164;SDS011;54093;50.014;19.984;2022-11-27T13:21:51;15.15;;;9.57;;
67164;SDS011;54093;50.014;19.984;2022-11-27T13:31:21;10.48;;;7.90;;
67164;SDS011;54093;50.014;19.984;2022-11-27T13:40:49;11.27;;;8.45;;
67164;SDS011;54093;50.014;19.984;2022-11-27T13:50:13;10.90;;;8.13;;
67164;SDS011;54093;50.014;19.984;2022-11-27T13:59:37;15.68;;;10.82;;
67164;SDS011;54093;50.014;19.984;2022-11-27T14:08:59;12.73;;;9.30;;
67164;SDS011;54093;50.014;19.984;2022-11-27T14:18:21;15.52;;;10.88;;
67164;SDS011;54093;50.014;19.984;2022-11-27T14:27:42;19.27;;;10.57;;
67164;SDS011;54093;50.014;19.984;2022-11-27T14:37:03;13.68;;;8.32;;
67164;SDS011;54093;50.014;19.984;2022-11-27T14:46:24;18.90;;;9.07;;
67164;SDS011;54093;50.014;19.984;2022-11-27T14:55:46;13.38;;;9.25;;
67164;SDS011;54093;50.014;19.984;2022-11-27T15:14:45;15.00;;;10.30;;
67164;SDS011;54093;50.014;19.984;2022-11-27T15:43:16;15.35;;;10.52;;
67164;SDS011;54093;50.014;19.984;2022-11-27T15:52:36;10.73;;;8.70;;
67164;SDS011;54093;50.014;19.984;2022-11-27T16:01:57;13.23;;;9.07;;
67164;SDS011;54093;50.014;19.984;2022-11-27T16:11:18;13.50;;;8.82;;
67164;SDS011;54093;50.014;19.984;2022-11-27T16:20:39;11.45;;;7.40;;
67164;SDS011;54093;50.014;19.984;2022-11-27T16:30:00;11.27;;;8.23;;
67164;SDS011;54093;50.014;19.984;2022-11-27T16:39:20;13.55;;;7.85;;
67164;SDS011;54093;50.014;19.984;2022-11-27T16:48:42;18.95;;;10.45;;
67164;SDS011;54093;50.014;19.984;2022-11-27T16:58:04;18.55;;;11.93;;
67164;SDS011;54093;50.014;19.984;2022-11-27T17:07:24;15.98;;;10.52;;
67164;SDS011;54093;50.014;19.984;2022-11-27T17:16:45;15.20;;;10.43;;
67164;SDS011;54093;50.014;19.984;2022-11-27T17:26:07;18.65;;;11.38;;
67164;SDS011;54093;50.014;19.984;2022-11-27T17:35:29;22.13;;;12.27;;
67164;SDS011;54093;50.014;19.984;2022-11-27T17:44:50;22.42;;;10.88;;
67164;SDS011;54093;50.014;19.984;2022-11-27T17:54:11;17.98;;;11.77;;
67164;SDS011;54093;50.014;19.984;2022-11-27T18:03:32;19.15;;;11.32;;
67164;SDS011;54093;50.014;19.984;2022-11-27T18:12:53;16.77;;;12.10;;
67164;SDS011;54093;50.014;19.984;2022-11-27T18:22:14;24.77;;;14.25;;
67164;SDS011;54093;50.014;19.984;2022-11-27T18:31:35;22.00;;;12.98;;
67164;SDS011;54093;50.014;19.984;2022-11-27T18:41:07;25.13;;;15.45;;
67164;SDS011;54093;50.014;19.984;2022-11-27T18:50:34;21.17;;;12.63;;
67164;SDS011;54093;50.014;19.984;2022-11-27T18:59:55;28.45;;;16.30;;
67164;SDS011;54093;50.014;19.984;2022-11-27T19:09:15;21.25;;;12.95;;
67164;SDS011;54093;50.014;19.984;2022-11-27T19:18:37;15.45;;;10.63;;
67164;SDS011;54093;50.014;19.984;2022-11-27T19:27:58;24.65;;;12.20;;
67164;SDS011;54093;50.014;19.984;2022-11-27T19:37:19;22.27;;;12.38;;
67164;SDS011;54093;50.014;19.984;2022-11-27T19:46:40;26.83;;;15.18;;
67164;SDS011;54093;50.014;19.984;2022-11-27T19:56:01;25.35;;;13.43;;
67164;SDS011;54093;50.014;19.984;2022-11-27T20:05:22;29.45;;;17.95;;
67164;SDS011;54093;50.014;19.984;2022-11-27T20:14:43;30.67;;;15.45;;
67164;SDS011;54093;50.014;19.984;2022-11-27T20:24:04;22.70;;;13.90;;
67164;SDS011;54093;50.014;19.984;2022-11-27T20:33:25;22.70;;;13.02;;
67164;SDS011;54093;50.014;19.984;2022-11-27T20:42:47;35.30;;;19.27;;
67164;SDS011;54093;50.014;19.984;2022-11-27T20:52:08;31.88;;;16.33;;
67164;SDS011;54093;50.014;19.984;2022-11-27T21:01:31;28.45;;;17.17;;
67164;SDS011;54093;50.014;19.984;2022-11-27T21:10:53;33.33;;;18.27;;
67164;SDS011;54093;50.014;19.984;2022-11-27T21:20:13;32.42;;;16.35;;
67164;SDS011;54093;50.014;19.984;2022-11-27T21:29:34;31.83;;;17.10;;
67164;SDS011;54093;50.014;19.984;2022-11-27T21:38:56;31.17;;;17.20;;
67164;SDS011;54093;50.014;19.984;2022-11-27T21:48:17;29.48;;;15.98;;
67164;SDS011;54093;50.014;19.984;2022-11-27T21:57:38;34.80;;;17.83;;
67164;SDS011;54093;50.014;19.984;2022-11-27T22:06:59;35.78;;;16.27;;
67164;SDS011;54093;50.014;19.984;2022-11-27T22:16:21;33.22;;;16.25;;
67164;SDS011;54093;50.014;19.984;2022-11-27T22:25:43;26.25;;;15.65;;
67164;SDS011;54093;50.014;19.984;2022-11-27T22:35:04;32.60;;;17.05;;
67164;SDS011;54093;50.014;19.984;2022-11-27T22:44:25;28.10;;;15.65;;
67164;SDS011;54093;50.014;19.984;2022-11-27T22:53:46;33.40;;;17.33;;
67164;SDS011;54093;50.014;19.984;2022-11-27T23:03:06;30.05;;;16.00;;
67164;SDS011;54093;50.014;19.984;2022-11-27T23:12:27;33.10;;;16.05;;
67164;SDS011;54093;50.014;19.984;2022-11-27T23:21:48;34.08;;;16.80;;
67164;SDS011;54093;50.014;19.984;2022-11-27T23:31:10;33.22;;;15.23;;
67164;SDS011;54093;50.014;19.984;2022-11-27T23:40:32;28.77;;;15.55;;
67164;SDS011;54093;50.014;19.984;2022-11-27T23:49:53;29.83;;;16.33;;
67164;SDS011;54093;50.014;19.984;2022-11-27T23:59:14;30.02;;;15.25;;
